Time;durP1;ratioP1;P1;durP2;ratioP2;P2;SDS_P1;SDS_P2;PMS_P1;PMS_P2;Temp;Humidity;BMP_temperature;BMP_pressure;BME280_temperature;BME280_humidity;BME280_pressure;Samples;Min_cycle;Max_cycle;Signal;HPM_P1;HPM_P2
2023/01/10 00:01:48;;;;;;;14.47;1.90;;;5.70;99.90;;;;;;5022752;28;20056;-72
2023/01/10 00:04:14;;;;;;;6.93;1.53;;;5.70;99.90;;;;;;5015603;28;20045;-72
2023/01/10 00:06:39;;;;;;;10.60;1.73;;;5.70;99.90;;;;;;5035621;28;20402;-72
2023/01/10 00:09:05;;;;;;;11.10;1.97;;;5.70;99.90;;;;;;5013242;28;20234;-72
2023/01/10 00:14:15;;;;;;;10.13;2.17;;;5.80;99.90;;;;;;5019408;28;20057;-72
2023/01/10 00:16:41;;;;;;;7.43;1.70;;;5.80;99.90;;;;;;5005826;28;20285;-72
2023/01/10 00:19:09;;;;;;;7.78;1.40;;;5.90;99.90;;;;;;5020793;28;20064;-71
2023/01/10 00:21:35;;;;;;;7.97;1.48;;;5.90;99.90;;;;;;5038984;28;20049;-71
2023/01/10 00:24:16;;;;;;;11.80;2.28;;;5.90;99.90;;;;;;5007599;28;20093;-71
2023/01/10 00:26:43;;;;;;;9.38;1.90;;;5.90;99.90;;;;;;5021969;28;20402;-73
2023/01/10 00:29:09;;;;;;;8.02;1.67;;;5.90;99.90;;;;;;5037762;28;20144;-72
2023/01/10 00:31:35;;;;;;;9.93;1.88;;;5.90;99.90;;;;;;5019344;28;20071;-71
2023/01/10 00:34:00;;;;;;;12.63;2.00;;;6.00;99.90;;;;;;5034342;28;20045;-72
2023/01/10 00:36:26;;;;;;;11.47;1.93;;;6.00;99.90;;;;;;5022470;28;20052;-72
2023/01/10 00:38:52;;;;;;;8.53;1.63;;;6.10;99.90;;;;;;5034599;28;20320;-71
2023/01/10 00:44:02;;;;;;;14.02;3.05;;;6.10;99.90;;;;;;5024009;28;20057;-72
2023/01/10 00:46:28;;;;;;;12.43;2.70;;;6.10;99.90;;;;;;5015752;28;20048;-71
2023/01/10 00:48:53;;;;;;;11.07;1.57;;;6.20;99.90;;;;;;5017195;28;20076;-72
2023/01/10 00:51:19;;;;;;;13.70;2.33;;;6.30;99.90;;;;;;5018602;28;20037;-71
2023/01/10 00:53:48;;;;;;;10.50;2.20;;;6.30;99.90;;;;;;5029173;28;20668;-72
2023/01/10 00:56:16;;;;;;;9.93;1.52;;;6.30;99.90;;;;;;5036219;28;20127;-71
2023/01/10 00:58:43;;;;;;;5.32;1.17;;;6.30;99.90;;;;;;5012275;28;20159;-71
2023/01/10 01:01:09;;;;;;;7.80;2.15;;;6.30;99.90;;;;;;5018440;28;20048;-72
2023/01/10 01:03:35;;;;;;;8.32;1.60;;;6.30;99.90;;;;;;5015964;28;20063;-71
2023/01/10 01:06:05;;;;;;;7.97;1.43;;;6.30;99.90;;;;;;5021576;28;20121;-71
2023/01/10 01:08:31;;;;;;;12.48;1.25;;;6.40;99.90;;;;;;5014827;28;20057;-71
2023/01/10 01:10:57;;;;;;;9.50;1.95;;;6.40;99.90;;;;;;5039255;28;20052;-71
2023/01/10 01:13:23;;;;;;;20.63;1.67;;;6.40;99.90;;;;;;5032782;28;20137;-71
2023/01/10 01:15:48;;;;;;;12.07;2.60;;;6.30;99.90;;;;;;5016034;28;20533;-71
2023/01/10 01:18:20;;;;;;;4.55;1.33;;;6.30;99.90;;;;;;5036982;28;20044;-71
2023/01/10 01:20:47;;;;;;;6.00;1.48;;;6.30;99.90;;;;;;5004242;28;20045;-71
2023/01/10 01:23:14;;;;;;;5.65;1.40;;;6.20;99.90;;;;;;5017921;28;20057;-71
2023/01/10 01:25:40;;;;;;;13.15;1.85;;;6.20;99.90;;;;;;5035545;28;20150;-72
2023/01/10 01:28:08;;;;;;;10.25;1.33;;;6.20;99.90;;;;;;5023097;28;20061;-71
2023/01/10 01:30:34;;;;;;;11.35;1.42;;;6.20;99.90;;;;;;5018306;28;20045;-70
2023/01/10 01:33:00;;;;;;;4.07;1.25;;;6.20;99.90;;;;;;5038059;28;20041;-72
2023/01/10 01:35:25;;;;;;;9.80;1.37;;;6.20;99.90;;;;;;5040000;28;20049;-72
2023/01/10 01:37:51;;;;;;;11.10;2.00;;;6.20;99.90;;;;;;5035536;28;20215;-71
2023/01/10 01:40:19;;;;;;;6.23;1.90;;;6.20;99.90;;;;;;5036759;28;20078;-71
2023/01/10 01:42:46;;;;;;;11.45;1.70;;;6.20;99.90;;;;;;5036947;28;20045;-71
2023/01/10 01:45:30;;;;;;;;;;;6.20;99.90;;;;;;5022061;28;20453;-71
2023/01/10 01:48:10;;;;;;;6.55;1.40;;;6.20;99.90;;;;;;5025505;28;20793;-71
2023/01/10 01:51:06;;;;;;;8.60;1.40;;;6.20;99.90;;;;;;5025206;28;20307;-72
2023/01/10 01:53:43;;;;;;;7.10;1.85;;;6.30;99.90;;;;;;5027031;28;20049;-72
2023/01/10 01:56:17;;;;;;;10.20;2.00;;;6.30;99.90;;;;;;5029809;28;20048;-72
2023/01/10 01:59:07;;;;;;;7.95;1.58;;;6.30;99.90;;;;;;5030813;28;20331;-71
2023/01/10 02:01:39;;;;;;;7.78;1.70;;;6.30;99.90;;;;;;5010744;28;20037;-71
2023/01/10 02:04:28;;;;;;;6.90;1.80;;;6.30;99.90;;;;;;5039413;28;20045;-72
2023/01/10 02:06:55;;;;;;;6.03;1.55;;;6.30;99.90;;;;;;5026643;28;20402;-72
2023/01/10 02:09:30;;;;;;;5.18;1.60;;;6.30;99.90;;;;;;5046283;28;20116;-72
2023/01/10 02:11:56;;;;;;;9.35;1.27;;;6.30;99.90;;;;;;5041022;28;20052;-75
2023/01/10 02:14:25;;;;;;;6.27;1.17;;;6.30;99.90;;;;;;5024963;28;20049;-72
2023/01/10 02:16:51;;;;;;;13.82;1.65;;;6.30;99.90;;;;;;5031239;28;20048;-71
2023/01/10 02:19:27;;;;;;;12.60;1.95;;;6.30;99.90;;;;;;5028400;28;20507;-72
2023/01/10 02:22:08;;;;;;;8.13;1.10;;;6.30;99.90;;;;;;5023235;28;20044;-71
2023/01/10 02:25:03;;;;;;;9.90;1.20;;;6.30;99.90;;;;;;5022997;28;20443;-72
2023/01/10 02:27:48;;;;;;;12.93;2.15;;;6.30;99.90;;;;;;5002480;28;20053;-72
2023/01/10 02:30:44;;;;;;;11.25;2.20;;;6.30;99.90;;;;;;5032192;28;20032;-72
2023/01/10 02:33:26;;;;;;;10.40;1.95;;;6.40;99.90;;;;;;5029869;28;20065;-72
2023/01/10 02:36:06;;;;;;;7.40;1.40;;;6.40;99.90;;;;;;5023085;28;20045;-72
2023/01/10 02:38:56;;;;;;;10.80;2.45;;;6.50;99.90;;;;;;5025863;28;20037;-71
2023/01/10 02:41:55;;;;;;;8.82;1.33;;;6.50;99.90;;;;;;5035701;28;20132;-71
2023/01/10 02:44:31;;;;;;;4.82;1.80;;;6.50;99.90;;;;;;5044679;28;20356;-71
2023/01/10 02:46:56;;;;;;;12.75;1.92;;;6.50;99.90;;;;;;5026764;28;20053;-71
2023/01/10 02:49:22;;;;;;;9.67;1.40;;;6.60;99.90;;;;;;5044845;28;20048;-72
2023/01/10 02:51:47;;;;;;;8.60;1.67;;;6.60;99.90;;;;;;5032391;28;20053;-72
2023/01/10 02:54:23;;;;;;;9.43;1.70;;;6.60;99.90;;;;;;5026642;28;20388;-71
2023/01/10 02:57:00;;;;;;;15.35;1.38;;;6.60;99.90;;;;;;5037714;28;20060;-72
2023/01/10 02:59:48;;;;;;;4.80;1.15;;;6.60;99.90;;;;;;5019903;28;20033;-71
2023/01/10 03:02:31;;;;;;;8.43;1.20;;;6.60;99.90;;;;;;5025885;28;20057;-72
2023/01/10 03:05:34;;;;;;;6.07;1.40;;;6.60;99.90;;;;;;5045349;28;20080;-71
2023/01/10 03:08:19;;;;;;;6.18;1.70;;;6.60;99.90;;;;;;5007945;28;20049;-71
2023/01/10 03:10:56;;;;;;;4.78;1.75;;;6.60;99.90;;;;;;5033593;28;20044;-71
2023/01/10 03:13:25;;;;;;;8.88;1.58;;;6.60;99.90;;;;;;5041041;28;20048;-71
2023/01/10 03:15:53;;;;;;;7.40;1.73;;;6.60;99.90;;;;;;5046351;28;20052;-72
2023/01/10 03:18:35;;;;;;;7.57;1.48;;;6.60;99.90;;;;;;5039233;28;20041;-71
2023/01/10 03:21:03;;;;;;;10.02;1.75;;;6.60;99.90;;;;;;5039657;28;20056;-72
2023/01/10 03:23:34;;;;;;;10.02;1.23;;;6.60;99.90;;;;;;5042848;28;20082;-72
2023/01/10 03:26:03;;;;;;;6.40;1.60;;;6.60;99.90;;;;;;5045213;28;20473;-71
2023/01/10 03:28:36;;;;;;;6.65;1.17;;;6.60;99.90;;;;;;5026330;28;20052;-72
2023/01/10 03:31:28;;;;;;;7.07;1.90;;;6.60;99.90;;;;;;5040632;28;20345;-71
2023/01/10 03:33:54;;;;;;;7.53;1.60;;;6.60;99.90;;;;;;5031436;28;20045;-71
2023/01/10 03:36:57;;;;;;;4.85;1.25;;;6.60;99.90;;;;;;5042451;28;20105;-71
2023/01/10 03:39:31;;;;;;;14.45;2.00;;;6.60;99.90;;;;;;5018412;28;20040;-71
2023/01/10 03:42:18;;;;;;;7.05;1.75;;;6.60;99.90;;;;;;5027194;28;20102;-72
2023/01/10 03:45:04;;;;;;;7.27;1.57;;;6.60;99.90;;;;;;5027013;28;20147;-72
2023/01/10 03:47:44;;;;;;;10.85;2.15;;;6.60;99.90;;;;;;5023907;28;20045;-72
2023/01/10 03:50:22;;;;;;;9.48;1.85;;;6.50;99.90;;;;;;5022003;28;20052;-72
2023/01/10 03:52:48;;;;;;;8.85;2.13;;;6.50;99.90;;;;;;5038913;28;20087;-71
2023/01/10 03:55:19;;;;;;;12.77;2.03;;;6.50;99.90;;;;;;5045296;28;20482;-71
2023/01/10 03:57:45;;;;;;;8.93;2.53;;;6.50;99.90;;;;;;5038204;28;20040;-72
2023/01/10 04:00:12;;;;;;;12.73;1.80;;;6.50;99.90;;;;;;5022910;28;20418;-72
2023/01/10 04:02:38;;;;;;;7.25;1.80;;;6.50;99.90;;;;;;5043879;28;20334;-71
2023/01/10 04:05:04;;;;;;;3.30;1.53;;;6.50;99.90;;;;;;5027798;28;20366;-71
2023/01/10 04:07:30;;;;;;;10.38;2.45;;;6.40;99.90;;;;;;5009282;28;20381;-72
2023/01/10 04:09:55;;;;;;;9.17;1.80;;;6.50;99.90;;;;;;5031605;28;20135;-72
2023/01/10 04:12:21;;;;;;;8.20;2.20;;;6.40;99.90;;;;;;5042519;28;20471;-71
2023/01/10 04:14:47;;;;;;;10.73;2.03;;;6.40;99.90;;;;;;5025683;28;20045;-71
2023/01/10 04:17:14;;;;;;;8.43;2.10;;;6.40;99.90;;;;;;5040110;28;20110;-71
2023/01/10 04:19:40;;;;;;;10.73;2.05;;;6.40;99.90;;;;;;5019349;28;20037;-71
2023/01/10 04:22:06;;;;;;;10.85;1.77;;;6.40;99.90;;;;;;5028500;28;20514;-72
2023/01/10 04:24:32;;;;;;;8.82;1.60;;;6.50;99.90;;;;;;5027713;28;20049;-72
2023/01/10 04:26:58;;;;;;;10.30;1.45;;;6.50;99.90;;;;;;5035405;28;20415;-73
2023/01/10 04:29:24;;;;;;;10.18;1.92;;;6.60;99.90;;;;;;5024992;28;20055;-72
2023/01/10 04:31:50;;;;;;;9.20;1.93;;;6.50;99.90;;;;;;5038682;28;20549;-71
2023/01/10 04:34:15;;;;;;;13.05;1.70;;;6.50;99.90;;;;;;5005145;28;20049;-72
2023/01/10 04:36:41;;;;;;;9.80;2.10;;;6.50;99.90;;;;;;5044620;28;20055;-71
2023/01/10 04:39:07;;;;;;;8.75;1.70;;;6.50;99.90;;;;;;5020436;28;20128;-72
2023/01/10 04:41:33;;;;;;;4.65;1.42;;;6.50;99.90;;;;;;5004723;28;20045;-71
2023/01/10 04:43:59;;;;;;;7.82;1.70;;;6.50;99.90;;;;;;5044187;28;20491;-72
2023/01/10 04:46:25;;;;;;;6.53;1.90;;;6.50;99.90;;;;;;5008755;28;20312;-71
2023/01/10 04:48:51;;;;;;;7.10;1.92;;;6.50;99.90;;;;;;5024850;28;20335;-71
2023/01/10 04:51:17;;;;;;;8.47;1.50;;;6.50;99.90;;;;;;5022104;28;20331;-72
2023/01/10 04:53:42;;;;;;;6.37;1.87;;;6.50;99.90;;;;;;5023682;28;20098;-71
2023/01/10 04:56:14;;;;;;;5.87;1.87;;;6.50;99.90;;;;;;5022625;28;20047;-71
2023/01/10 04:58:40;;;;;;;12.52;1.92;;;6.50;99.90;;;;;;5016378;28;20136;-72
2023/01/10 05:01:11;;;;;;;18.33;1.50;;;6.50;99.90;;;;;;5012758;28;20123;-71
2023/01/10 05:03:37;;;;;;;9.15;1.70;;;6.60;99.90;;;;;;5037233;28;20037;-71
2023/01/10 05:06:03;;;;;;;6.30;1.63;;;6.60;99.90;;;;;;5022826;28;20041;-72
2023/01/10 05:08:29;;;;;;;;;;;6.60;99.90;;;;;;5036808;28;20063;-73
2023/01/10 05:10:54;;;;;;;4.63;0.90;;;6.60;99.90;;;;;;5016967;28;19920;-71
2023/01/10 05:13:20;;;;;;;7.50;1.20;;;6.50;99.90;;;;;;5020332;28;20033;-71
2023/01/10 05:15:46;;;;;;;4.83;1.63;;;6.60;99.90;;;;;;5026565;28;20411;-72
2023/01/10 05:18:11;;;;;;;8.27;1.57;;;6.50;99.90;;;;;;5024739;28;20525;-72
2023/01/10 05:20:37;;;;;;;5.33;1.40;;;6.50;99.90;;;;;;5019567;28;20041;-71
2023/01/10 05:23:02;;;;;;;6.00;1.10;;;6.50;99.90;;;;;;5033507;28;20164;-71
2023/01/10 05:25:28;;;;;;;9.30;1.17;;;6.50;99.90;;;;;;5026234;28;20040;-71
2023/01/10 05:27:54;;;;;;;4.87;1.40;;;6.50;99.90;;;;;;5019203;28;20444;-71
2023/01/10 05:30:19;;;;;;;5.30;1.80;;;6.50;99.90;;;;;;5032894;28;20132;-71
2023/01/10 05:32:45;;;;;;;4.97;0.90;;;6.50;99.90;;;;;;5016931;28;20029;-71
2023/01/10 05:35:11;;;;;;;6.55;1.45;;;6.50;99.90;;;;;;5039967;28;20044;-71
2023/01/10 05:37:37;;;;;;;3.13;1.20;;;6.50;99.90;;;;;;5030899;28;20036;-71
2023/01/10 05:40:03;;;;;;;7.80;1.15;;;6.50;99.90;;;;;;5039156;28;20414;-72
2023/01/10 05:42:29;;;;;;;6.13;1.35;;;6.60;99.90;;;;;;5037378;28;20049;-72
2023/01/10 05:44:54;;;;;;;8.13;1.80;;;6.60;99.90;;;;;;5035233;28;20060;-71
2023/01/10 05:47:20;;;;;;;6.87;1.80;;;6.60;99.90;;;;;;5014269;28;20410;-71
2023/01/10 05:49:46;;;;;;;8.63;1.50;;;6.60;99.90;;;;;;5020225;28;20450;-71
2023/01/10 05:52:11;;;;;;;6.97;1.33;;;6.60;99.90;;;;;;5052125;22;20363;-73
2023/01/10 05:54:37;;;;;;;8.27;1.17;;;6.60;99.90;;;;;;5019823;28;20507;-73
2023/01/10 05:57:03;;;;;;;9.73;1.23;;;6.60;99.90;;;;;;5004673;28;20502;-72
2023/01/10 05:59:28;;;;;;;4.83;1.53;;;6.60;99.90;;;;;;5003506;28;20120;-73
2023/01/10 06:01:54;;;;;;;4.50;1.00;;;6.60;99.90;;;;;;5002306;28;20483;-73
2023/01/10 06:04:19;;;;;;;7.00;1.83;;;6.60;99.90;;;;;;5000115;28;20049;-72
2023/01/10 06:06:45;;;;;;;4.53;1.27;;;6.50;99.90;;;;;;5000866;28;20321;-73
2023/01/10 06:09:11;;;;;;;8.13;1.20;;;6.50;99.90;;;;;;4995724;28;20118;-73
2023/01/10 06:11:37;;;;;;;3.03;0.90;;;6.50;99.90;;;;;;4995328;28;20045;-73
2023/01/10 06:14:03;;;;;;;;;;;6.50;99.90;;;;;;5002973;28;20042;-73
2023/01/10 06:16:29;;;;;;;6.53;0.90;;;6.40;99.90;;;;;;4995952;28;19979;-72
2023/01/10 06:18:55;;;;;;;7.73;1.50;;;6.30;99.90;;;;;;5002229;28;20411;-73
2023/01/10 06:21:21;;;;;;;4.83;1.00;;;6.30;99.90;;;;;;4995222;28;20042;-73
2023/01/10 06:23:46;;;;;;;3.17;1.20;;;6.20;99.90;;;;;;4999761;28;20419;-73
2023/01/10 06:26:12;;;;;;;5.63;1.57;;;6.20;99.90;;;;;;5007014;28;20117;-73
2023/01/10 06:28:39;;;;;;;5.23;1.43;;;6.10;99.90;;;;;;4998908;28;20038;-73
2023/01/10 06:31:06;;;;;;;6.18;1.85;;;6.00;99.90;;;;;;4997866;28;20123;-73
2023/01/10 06:33:32;;;;;;;6.28;1.55;;;6.00;99.90;;;;;;5005626;28;20045;-73
2023/01/10 06:35:57;;;;;;;10.40;1.97;;;6.00;99.90;;;;;;4999388;28;20073;-74
2023/01/10 06:38:23;;;;;;;7.20;1.90;;;6.00;99.90;;;;;;4993272;28;20085;-73
2023/01/10 06:40:48;;;;;;;11.20;1.93;;;5.90;99.90;;;;;;5005259;28;20302;-74
2023/01/10 06:43:14;;;;;;;7.23;2.10;;;5.90;99.90;;;;;;5004259;28;20399;-73
2023/01/10 06:45:40;;;;;;;5.73;2.23;;;5.90;99.90;;;;;;5020795;28;20049;-74
2023/01/10 06:48:05;;;;;;;6.63;1.50;;;6.00;99.90;;;;;;5002877;28;20048;-73
2023/01/10 06:50:31;;;;;;;9.57;2.03;;;6.00;99.90;;;;;;4991625;28;20034;-74
2023/01/10 06:53:01;;;;;;;9.77;2.07;;;6.00;99.90;;;;;;5002918;28;20095;-74
2023/01/10 06:55:28;;;;;;;9.68;2.17;;;6.00;99.90;;;;;;5005111;28;20056;-74
2023/01/10 06:58:03;;;;;;;7.88;2.10;;;6.10;99.90;;;;;;4999446;28;20041;-74
2023/01/10 07:00:30;;;;;;;5.47;2.33;;;6.10;99.90;;;;;;4998976;28;20418;-73
2023/01/10 07:03:00;;;;;;;7.78;2.38;;;6.10;99.90;;;;;;5004832;28;20057;-74
2023/01/10 07:05:26;;;;;;;17.33;2.35;;;6.20;99.90;;;;;;5019490;28;20452;-74
2023/01/10 07:07:52;;;;;;;15.05;2.30;;;6.20;99.90;;;;;;5000601;28;20053;-73
2023/01/10 07:10:18;;;;;;;14.17;2.20;;;6.20;99.90;;;;;;4995390;28;20045;-73
2023/01/10 07:12:43;;;;;;;18.97;3.10;;;6.20;99.90;;;;;;5002210;28;20125;-73
2023/01/10 07:15:09;;;;;;;15.67;2.33;;;6.20;99.90;;;;;;5004392;28;20116;-73
2023/01/10 07:17:35;;;;;;;14.63;2.83;;;6.30;99.90;;;;;;5000938;28;20041;-74
2023/01/10 07:20:03;;;;;;;18.15;2.95;;;6.30;99.90;;;;;;4978455;28;20045;-73
2023/01/10 07:22:29;;;;;;;10.75;2.08;;;6.30;99.90;;;;;;5001333;28;20506;-72
2023/01/10 07:24:55;;;;;;;13.47;2.50;;;6.40;99.90;;;;;;5007560;28;20056;-73
2023/01/10 07:27:20;;;;;;;18.07;3.60;;;6.40;99.90;;;;;;5015144;28;20468;-73
2023/01/10 07:29:46;;;;;;;12.00;2.53;;;6.40;99.90;;;;;;5004633;28;20129;-73
2023/01/10 07:32:12;;;;;;;20.43;2.23;;;6.50;99.90;;;;;;4999246;28;20045;-72
2023/01/10 07:34:37;;;;;;;16.08;3.78;;;6.50;99.90;;;;;;5003056;28;20061;-73
2023/01/10 07:37:03;;;;;;;11.90;2.73;;;6.50;99.90;;;;;;5002956;28;20099;-73
2023/01/10 07:39:29;;;;;;;15.90;3.70;;;6.50;99.90;;;;;;4997388;28;20038;-73
2023/01/10 07:41:55;;;;;;;8.40;2.93;;;6.60;99.90;;;;;;4995880;28;20041;-73
2023/01/10 07:44:21;;;;;;;12.70;2.17;;;6.60;99.90;;;;;;4999802;28;20046;-73
2023/01/10 07:46:47;;;;;;;20.60;2.85;;;6.50;99.90;;;;;;5002660;28;20117;-73
2023/01/10 07:49:13;;;;;;;14.40;2.67;;;6.50;99.90;;;;;;4996640;28;20121;-73
2023/01/10 07:51:39;;;;;;;16.63;2.78;;;6.50;99.90;;;;;;5001162;28;20049;-73
2023/01/10 07:54:04;;;;;;;6.68;2.22;;;6.40;99.90;;;;;;4999404;28;20056;-73
2023/01/10 07:56:30;;;;;;;15.10;2.87;;;6.40;99.90;;;;;;4992912;28;20543;-73
2023/01/10 07:58:56;;;;;;;9.13;2.43;;;6.40;99.90;;;;;;4993640;28;20148;-73
2023/01/10 08:01:23;;;;;;;12.00;1.93;;;6.40;99.90;;;;;;4999536;28;20128;-73
2023/01/10 08:03:49;;;;;;;11.88;3.17;;;6.40;99.90;;;;;;4996988;28;20141;-73
2023/01/10 08:06:14;;;;;;;9.37;2.03;;;6.40;99.90;;;;;;4993051;28;20128;-73
2023/01/10 08:08:40;;;;;;;17.03;2.57;;;6.30;99.90;;;;;;5000007;28;20104;-73
2023/01/10 08:11:06;;;;;;;12.13;2.33;;;6.40;99.90;;;;;;5000088;28;20041;-73
2023/01/10 08:13:32;;;;;;;10.93;2.83;;;6.30;99.90;;;;;;4995575;28;20038;-73
2023/01/10 08:15:58;;;;;;;9.13;2.70;;;6.20;99.90;;;;;;4998340;28;20294;-73
2023/01/10 08:18:25;;;;;;;21.00;3.08;;;6.20;99.90;;;;;;5001436;28;20054;-73
2023/01/10 08:20:51;;;;;;;;;;;6.10;99.90;;;;;;5004121;28;20104;-73
2023/01/10 08:23:18;;;;;;;11.32;2.15;;;6.10;99.90;;;;;;4997633;28;20016;-73
2023/01/10 08:25:44;;;;;;;;;;;6.10;99.90;;;;;;4986556;28;20173;-73
2023/01/10 08:28:10;;;;;;;12.30;2.85;;;6.10;99.90;;;;;;5004801;28;19929;-74
2023/01/10 08:30:36;;;;;;;12.07;2.13;;;6.00;99.90;;;;;;5001244;28;20136;-73
2023/01/10 08:33:03;;;;;;;8.85;2.42;;;6.00;99.90;;;;;;4995332;28;20141;-73
2023/01/10 08:35:29;;;;;;;8.98;2.63;;;6.00;99.90;;;;;;5001346;28;20058;-74
2023/01/10 08:37:59;;;;;;;11.35;2.10;;;6.00;99.90;;;;;;4986272;28;20049;-73
2023/01/10 08:40:25;;;;;;;10.75;2.50;;;6.00;99.90;;;;;;5001767;28;20045;-74
2023/01/10 08:43:02;;;;;;;15.32;2.75;;;6.00;99.90;;;;;;5000381;28;20038;-74
2023/01/10 08:45:28;;;;;;;14.80;2.45;;;6.00;99.90;;;;;;4994583;28;20909;-73
2023/01/10 08:47:54;;;;;;;19.67;2.90;;;6.00;99.90;;;;;;5001372;28;20042;-73
2023/01/10 08:50:20;;;;;;;8.65;2.55;;;5.90;99.90;;;;;;4993437;28;20419;-73
2023/01/10 08:52:46;;;;;;;12.55;2.40;;;6.00;99.90;;;;;;5000638;28;20033;-73
2023/01/10 08:55:12;;;;;;;10.80;2.30;;;6.00;99.90;;;;;;5002919;28;20147;-73
2023/01/10 08:57:37;;;;;;;19.10;3.17;;;6.10;99.90;;;;;;4995354;28;20044;-73
2023/01/10 09:00:04;;;;;;;13.60;2.00;;;6.10;99.90;;;;;;4994385;28;20070;-73
2023/01/10 09:02:30;;;;;;;17.77;2.78;;;6.10;99.90;;;;;;5002645;28;20045;-73
2023/01/10 09:04:55;;;;;;;8.97;2.10;;;6.20;99.90;;;;;;4997255;28;20594;-73
2023/01/10 09:07:21;;;;;;;7.73;2.57;;;6.20;99.90;;;;;;4998185;28;20620;-73
2023/01/10 09:09:46;;;;;;;13.10;3.00;;;6.30;99.90;;;;;;4998976;28;20108;-73
2023/01/10 09:14:57;;;;;;;11.48;1.80;;;6.40;99.90;;;;;;5002589;28;20050;-73
2023/01/10 09:17:22;;;;;;;8.93;2.10;;;6.40;99.90;;;;;;4997771;28;20034;-73
2023/01/10 09:19:48;;;;;;;17.27;2.47;;;6.40;99.90;;;;;;4998634;28;20052;-73
2023/01/10 09:22:14;;;;;;;7.72;1.77;;;6.50;99.90;;;;;;5001239;28;20390;-74
2023/01/10 09:24:42;;;;;;;5.25;1.55;;;6.50;99.90;;;;;;5000607;28;20328;-72
2023/01/10 09:27:09;;;;;;;15.32;1.90;;;6.60;99.90;;;;;;5001556;28;20116;-72
2023/01/10 09:29:35;;;;;;;;;;;6.60;99.90;;;;;;5001302;28;20049;-74
2023/01/10 09:32:00;;;;;;;5.53;1.80;;;6.60;99.90;;;;;;5001787;28;20291;-75
2023/01/10 09:34:26;;;;;;;9.03;1.77;;;6.70;99.90;;;;;;4996322;28;20038;-74
2023/01/10 09:36:53;;;;;;;12.00;1.77;;;6.70;99.90;;;;;;5003253;28;20038;-75
2023/01/10 09:39:20;;;;;;;10.85;2.33;;;6.80;99.90;;;;;;4994928;28;20061;-75
2023/01/10 09:42:13;;;;;;;7.15;2.10;;;6.80;99.90;;;;;;5003312;28;20053;-75
2023/01/10 09:45:00;;;;;;;16.65;3.15;;;6.80;99.90;;;;;;5018398;28;20525;-75
2023/01/10 09:47:36;;;;;;;14.80;3.35;;;6.90;99.90;;;;;;4997081;28;20049;-75
2023/01/10 09:50:18;;;;;;;8.57;2.33;;;6.90;99.90;;;;;;4994100;28;20084;-75
2023/01/10 09:53:08;;;;;;;8.82;1.98;;;7.00;99.90;;;;;;5000157;28;20046;-75
2023/01/10 09:55:37;;;;;;;12.82;2.38;;;7.00;99.90;;;;;;5000745;28;20180;-75
2023/01/10 09:58:16;;;;;;;16.67;3.60;;;7.00;99.90;;;;;;4998705;28;20526;-79
2023/01/10 10:01:00;;;;;;;7.03;2.05;;;7.00;99.90;;;;;;5000540;28;20049;-74
2023/01/10 10:03:55;;;;;;;11.93;2.65;;;7.00;99.90;;;;;;4995770;28;20042;-75
2023/01/10 10:06:22;;;;;;;11.15;2.10;;;7.10;99.90;;;;;;4998112;28;20393;-75
2023/01/10 10:08:48;;;;;;;15.20;2.95;;;7.00;99.90;;;;;;5007752;28;20456;-74
2023/01/10 10:11:25;;;;;;;10.37;2.40;;;7.10;99.90;;;;;;4995885;28;20085;-74
2023/01/10 10:14:10;;;;;;;10.77;2.50;;;7.10;99.90;;;;;;5007162;28;20114;-74
2023/01/10 10:16:56;;;;;;;11.00;2.40;;;7.10;99.90;;;;;;5003801;28;20578;-74
2023/01/10 10:19:41;;;;;;;13.80;2.30;;;7.10;99.90;;;;;;5005354;28;20060;-75
2023/01/10 10:22:20;;;;;;;15.68;2.67;;;7.10;99.90;;;;;;5020916;28;20156;-75
2023/01/10 10:24:58;;;;;;;11.20;2.83;;;7.10;99.90;;;;;;5005935;28;20220;-75
2023/01/10 10:27:30;;;;;;;14.90;3.47;;;7.10;99.90;;;;;;5007575;28;20038;-73
2023/01/10 10:30:36;;;;;;;13.90;2.13;;;7.10;99.90;;;;;;5005000;28;20046;-75
2023/01/10 10:33:25;;;;;;;8.90;1.65;;;7.10;99.90;;;;;;5007267;28;20081;-74
2023/01/10 10:36:07;;;;;;;11.80;3.60;;;7.10;99.90;;;;;;4997571;28;20108;-72
2023/01/10 10:38:38;;;;;;;10.00;2.28;;;7.10;99.90;;;;;;4998935;28;20495;-72
2023/01/10 10:41:27;;;;;;;14.13;2.97;;;7.20;99.90;;;;;;4995345;28;20042;-72
2023/01/10 10:43:54;;;;;;;16.58;2.80;;;7.20;99.90;;;;;;4999299;28;20563;-72
2023/01/10 10:46:21;;;;;;;12.65;2.80;;;7.20;99.90;;;;;;5004029;28;20058;-72
2023/01/10 10:49:14;;;;;;;15.60;2.63;;;7.20;99.90;;;;;;4999489;28;20117;-72
2023/01/10 10:51:49;;;;;;;11.07;2.67;;;7.30;99.90;;;;;;4998243;28;20053;-72
2023/01/10 10:54:15;;;;;;;14.88;2.90;;;7.20;99.90;;;;;;5001332;28;20046;-72
2023/01/10 10:56:42;;;;;;;16.73;2.85;;;7.20;99.90;;;;;;5001926;28;20531;-72
2023/01/10 10:59:08;;;;;;;20.08;3.60;;;7.20;99.90;;;;;;5002635;28;20053;-73
2023/01/10 11:01:34;;;;;;;16.20;3.45;;;7.20;99.90;;;;;;5002878;28;20422;-73
2023/01/10 11:04:01;;;;;;;18.53;2.73;;;7.20;99.90;;;;;;5015581;28;20053;-73
2023/01/10 11:06:29;;;;;;;14.75;3.60;;;7.30;99.90;;;;;;5013588;28;20303;-73
2023/01/10 11:08:59;;;;;;;15.00;2.83;;;7.30;99.90;;;;;;4995399;28;20052;-73
2023/01/10 11:11:34;;;;;;;17.10;3.72;;;7.30;99.90;;;;;;5000623;28;20061;-73
2023/01/10 11:14:05;;;;;;;21.95;3.50;;;7.30;99.90;;;;;;4996354;28;20042;-73
2023/01/10 11:16:39;;;;;;;14.85;3.20;;;7.30;99.90;;;;;;4994332;28;20452;-73
2023/01/10 11:19:22;;;;;;;13.70;3.15;;;7.30;99.90;;;;;;4996573;28;20038;-73
2023/01/10 11:22:06;;;;;;;11.30;3.10;;;7.30;99.90;;;;;;5002731;28;20983;-73
2023/01/10 11:24:53;;;;;;;20.08;3.90;;;7.30;99.90;;;;;;5002107;28;20046;-73
2023/01/10 11:27:41;;;;;;;19.95;4.47;;;7.30;99.90;;;;;;5000388;28;20049;-73
2023/01/10 11:30:08;;;;;;;18.77;4.43;;;7.30;99.90;;;;;;4998772;28;20054;-72
2023/01/10 11:32:51;;;;;;;12.02;4.30;;;7.30;99.90;;;;;;4997292;28;20042;-73
2023/01/10 11:35:32;;;;;;;15.20;3.65;;;7.30;99.90;;;;;;5003978;28;20084;-73
2023/01/10 11:38:03;;;;;;;11.50;3.60;;;7.30;99.90;;;;;;5000820;28;20053;-72
2023/01/10 11:40:32;;;;;;;16.48;4.10;;;7.30;99.90;;;;;;4989888;28;20410;-73
2023/01/10 11:42:59;;;;;;;20.17;4.18;;;7.30;99.90;;;;;;4999573;28;20400;-73
2023/01/10 11:45:30;;;;;;;22.45;5.10;;;7.30;99.90;;;;;;5005334;28;20038;-74
2023/01/10 11:48:19;;;;;;;18.88;3.33;;;7.20;99.90;;;;;;5003590;28;20419;-73
2023/01/10 11:50:49;;;;;;;15.32;4.25;;;7.30;99.90;;;;;;5008193;22;20053;-71
2023/01/10 11:53:59;;;;;;;18.08;3.85;;;7.20;99.90;;;;;;5000965;28;20485;-71
2023/01/10 11:56:28;;;;;;;11.13;3.30;;;7.20;99.90;;;;;;4948950;28;20111;-72
2023/01/10 11:58:56;;;;;;;18.95;4.15;;;7.10;99.90;;;;;;5009335;28;20052;-71
2023/01/10 12:01:27;;;;;;;13.85;3.90;;;7.10;99.90;;;;;;5006476;28;20057;-71
2023/01/10 12:03:53;;;;;;;18.95;3.92;;;7.10;99.90;;;;;;4992697;28;20322;-71
2023/01/10 12:06:19;;;;;;;13.38;3.88;;;7.10;99.90;;;;;;4999466;28;20125;-71
2023/01/10 12:08:45;;;;;;;17.73;3.80;;;7.10;99.90;;;;;;5020524;28;20424;-72
2023/01/10 12:11:16;;;;;;;16.83;3.72;;;7.00;99.90;;;;;;5016176;28;20513;-74
2023/01/10 12:13:45;;;;;;;17.67;4.82;;;7.00;99.90;;;;;;5019851;28;20045;-72
2023/01/10 12:16:15;;;;;;;17.25;4.00;;;7.00;99.90;;;;;;5007548;28;20065;-72
2023/01/10 12:18:41;;;;;;;13.60;3.53;;;7.00;99.90;;;;;;5015070;28;20051;-71
2023/01/10 12:21:08;;;;;;;12.60;3.67;;;6.90;99.90;;;;;;5014312;28;20095;-72
2023/01/10 12:23:40;;;;;;;11.45;3.67;;;6.90;99.90;;;;;;5004060;28;20061;-71
2023/01/10 12:26:07;;;;;;;16.50;3.63;;;6.90;99.90;;;;;;5001880;28;20045;-72
2023/01/10 12:28:35;;;;;;;18.98;3.88;;;6.90;99.90;;;;;;5012916;28;20122;-72
2023/01/10 12:31:02;;;;;;;15.63;3.28;;;6.90;99.90;;;;;;5015773;28;20475;-71
2023/01/10 12:33:34;;;;;;;15.48;4.22;;;6.90;99.90;;;;;;5019804;28;20096;-71
2023/01/10 12:36:12;;;;;;;22.13;5.75;;;6.90;99.90;;;;;;4996552;28;20262;-71
2023/01/10 12:44:46;;;;;;;19.92;4.07;;;6.80;99.90;;;;;;5019562;28;20049;-72
2023/01/10 12:47:27;;;;;;;18.92;4.10;;;6.90;99.90;;;;;;5000180;28;20065;-71
2023/01/10 12:50:13;;;;;;;14.77;3.70;;;6.90;99.90;;;;;;4998814;28;20052;-71
2023/01/10 12:52:59;;;;;;;;;;;6.80;99.90;;;;;;5011673;28;20374;-72
2023/01/10 12:55:29;;;;;;;16.98;3.80;;;6.80;99.90;;;;;;5016670;28;19925;-71
2023/01/10 12:58:01;;;;;;;15.65;3.90;;;6.80;99.90;;;;;;5011930;28;20083;-71
2023/01/10 13:00:36;;;;;;;13.35;4.13;;;6.80;99.90;;;;;;5001384;28;20069;-72
2023/01/10 13:03:09;;;;;;;10.07;4.00;;;6.80;99.90;;;;;;4996722;28;20105;-72
2023/01/10 13:05:35;;;;;;;17.23;4.10;;;6.80;99.90;;;;;;4999945;28;20053;-72
2023/01/10 13:08:09;;;;;;;15.30;3.53;;;6.80;99.90;;;;;;4994064;28;20068;-71
2023/01/10 13:10:40;;;;;;;15.50;3.45;;;6.80;99.90;;;;;;5009400;28;20049;-72
2023/01/10 13:13:17;;;;;;;17.42;3.85;;;6.80;99.90;;;;;;5000441;28;20149;-71
2023/01/10 13:16:14;;;;;;;14.00;3.28;;;6.80;99.90;;;;;;5005949;28;20623;-71
2023/01/10 13:19:03;;;;;;;14.88;3.45;;;6.80;99.90;;;;;;5016781;28;20136;-71
2023/01/10 13:21:30;;;;;;;24.00;3.65;;;6.80;99.90;;;;;;5017906;28;20037;-72
2023/01/10 13:24:23;;;;;;;17.27;4.13;;;6.80;99.90;;;;;;5002641;28;20103;-72
2023/01/10 13:26:57;;;;;;;13.13;4.13;;;6.70;99.90;;;;;;5015206;28;20080;-72